Ana Sayfa
METAR-TAF:

METAR-TAF

Havaalanları :

New Haven, Connecticut, Amerika Birleşik Devletleri

Enlem: 41-15-50N, Boylam: 072-53-14W, yükseklik: 4 m

Güncel hava durumu gözlemi

Rapor saat 22:53 UTC de 58 dakika önce yapıldı.
Rüzgar batı/güneybatıdan 5 kt
Sıcaklık 6°C
Nem 61%
Basınç 1007 hPa
Görüş mesafesi: 16.1 km
Açık gökyüzü

METAR: KHVN 262253Z 25005KT 10SM CLR 06/M01 A2975 RMK AO2 SLP073 T00611006

Saat: 18:51 (23:51 UTC)


TAF: eksik

4.000'den fazla havaalanı için hava durumu gözlemleri ve tahminleri (METAR ve TAF raporları).

Kullanılabilir istasyonlar harita üzerinde sarı ve kırmızı noktalarla gösterilir.

İstasyonun adını görmek için fareyi noktanın üzerinde gezdirin.

Sonrasında hava gözlem ve tahminlerini görmek için tıklayın.

Haritayı değiştirmek için: yaklaştırmak için siyah artı işaretli yeşil düğmeye ve uzaklaştırmak için de eksi işaretli düğmeye hızla tıklayın; bitişik haritalar için yeşil okları kullanın.


METAR-TAF: